Time,TemperatureF,DewpointF,PressureIn,WindDirection,WindDirectionDegrees,WindSpeedMPH,WindSpeedGustMPH,Humidity,HourlyPrecipIn,Conditions,Clouds,dailyrainin,SoftwareType,DateUTC
2014-03-10 00:01:00,49.6,43.6,29.34,WSW,256,0.0,0.0,80,0.00,,,0.00,HR-IXPWINDi_r2_v1.2.,2014-03-10 04:01:00,
2014-03-10 00:06:00,49.5,43.5,29.34,WSW,256,0.0,0.0,80,0.00,,,0.00,HR-IXPWINDi_r2_v1.2.,2014-03-10 04:06:00,
2014-03-10 00:11:00,49.0,43.4,29.34,WSW,256,0.0,0.0,81,0.00,,,0.00,HR-IXPWINDi_r2_v1.2.,2014-03-10 04:11:00,
2014-03-10 00:16:00,48.3,43.3,29.34,WSW,256,0.0,0.0,83,0.00,,,0.00,HR-IXPWINDi_r2_v1.2.,2014-03-10 04:16:00,
2014-03-10 00:22:00,47.7,43.0,29.34,WSW,256,0.0,0.0,84,0.00,,,0.00,HR-IXPWINDi_r2_v1.2.,2014-03-10 04:22:00,
2014-03-10 00:27:00,47.6,43.6,29.34,WSW,256,0.0,0.0,86,0.00,,,0.00,HR-IXPWINDi_r2_v1.2.,2014-03-10 04:27:00,
2014-03-10 00:32:00,47.5,43.5,29.34,West,264,0.0,0.0,86,0.00,,,0.00,HR-IXPWINDi_r2_v1.2.,2014-03-10 04:32:00,
2014-03-10 00:37:00,47.6,43.3,29.34,West,264,0.0,0.0,85,0.00,,,0.00,HR-IXPWINDi_r2_v1.2.,2014-03-10 04:37:00,
2014-03-10 00:42:00,47.7,43.0,29.34,West,264,0.0,0.0,84,0.00,,,0.00,HR-IXPWINDi_r2_v1.2.,2014-03-10 04:42:00,
2014-03-10 00:48:00,48.0,43.0,29.34,West,266,0.0,0.0,83,0.00,,,0.00,HR-IXPWINDi_r2_v1.2.,2014-03-10 04:48:00,
2014-03-10 00:53:00,48.1,43.1,29.35,West,266,0.0,0.0,83,0.00,,,0.00,HR-IXPWINDi_r2_v1.2.,2014-03-10 04:53:00,
2014-03-10 00:58:00,48.0,42.7,29.34,NE,41,0.0,0.0,82,0.00,,,0.00,HR-IXPWINDi_r2_v1.2.,2014-03-10 04:58:00,
2014-03-10 01:03:00,47.6,42.6,29.35,NE,41,0.0,0.0,83,0.00,,,0.00,HR-IXPWINDi_r2_v1.2.,2014-03-10 05:03:00,
2014-03-10 01:08:00,47.2,42.6,29.34,NE,41,0.0,0.0,84,0.00,,,0.00,HR-IXPWINDi_r2_v1.2.,2014-03-10 05:08:00,
2014-03-10 01:14:00,46.7,42.4,29.34,NE,41,0.0,0.0,85,0.00,,,0.00,HR-IXPWINDi_r2_v1.2.,2014-03-10 05:14:00,
2014-03-10 01:20:00,46.5,42.2,29.34,NE,41,0.0,0.0,85,0.00,,,0.00,HR-IXPWINDi_r2_v1.2.,2014-03-10 05:20:00,
2014-03-10 01:25:00,46.2,42.5,29.34,NE,41,0.0,0.0,87,0.00,,,0.00,HR-IXPWINDi_r2_v1.2.,2014-03-10 05:25:00,
2014-03-10 01:30:00,45.8,42.1,29.34,NE,41,0.0,0.0,87,0.00,,,0.00,HR-IXPWINDi_r2_v1.2.,2014-03-10 05:30:00,
2014-03-10 01:35:00,45.7,42.6,29.35,ENE,66,0.0,0.0,89,0.00,,,0.00,HR-IXPWINDi_r2_v1.2.,2014-03-10 05:35:00,
2014-03-10 01:40:00,45.7,42.6,29.34,ENE,66,0.0,0.0,89,0.00,,,0.00,HR-IXPWINDi_r2_v1.2.,2014-03-10 05:40:00,
2014-03-10 01:45:00,45.5,42.4,29.34,ENE,67,0.0,0.0,89,0.00,,,0.00,HR-IXPWINDi_r2_v1.2.,2014-03-10 05:45:00,
2014-03-10 01:50:00,45.2,42.1,29.34,ENE,67,0.0,0.0,89,0.00,,,0.00,HR-IXPWINDi_r2_v1.2.,2014-03-10 05:50:00,
2014-03-10 01:56:00,45.1,42.0,29.34,ENE,67,0.0,0.0,89,0.00,,,0.00,HR-IXPWINDi_r2_v1.2.,2014-03-10 05:56:00,
2014-03-10 02:01:00,44.7,41.6,29.35,ENE,67,0.0,0.0,89,0.00,,,0.00,HR-IXPWINDi_r2_v1.2.,2014-03-10 06:01:00,
2014-03-10 02:06:00,44.4,41.6,29.34,ENE,66,0.0,0.0,90,0.00,,,0.00,HR-IXPWINDi_r2_v1.2.,2014-03-10 06:06:00,
2014-03-10 02:11:00,44.3,41.8,29.34,ENE,67,0.0,0.0,91,0.00,,,0.00,HR-IXPWINDi_r2_v1.2.,2014-03-10 06:11:00,
2014-03-10 02:16:00,44.2,41.7,29.34,ENE,66,0.0,0.0,91,0.00,,,0.00,HR-IXPWINDi_r2_v1.2.,2014-03-10 06:16:00,
2014-03-10 02:21:00,44.1,41.6,29.34,ENE,66,0.0,0.0,91,0.00,,,0.00,HR-IXPWINDi_r2_v1.2.,2014-03-10 06:21:00,
2014-03-10 02:27:00,44.0,41.8,29.34,ENE,66,0.0,0.0,92,0.00,,,0.00,HR-IXPWINDi_r2_v1.2.,2014-03-10 06:27:00,
2014-03-10 02:32:00,43.9,41.7,29.34,ENE,66,0.0,0.0,92,0.00,,,0.00,HR-IXPWINDi_r2_v1.2.,2014-03-10 06:32:00,
2014-03-10 02:37:00,43.8,41.6,29.34,ENE,66,0.0,0.0,92,0.00,,,0.00,HR-IXPWINDi_r2_v1.2.,2014-03-10 06:37:00,
2014-03-10 02:42:00,43.6,41.4,29.33,ENE,67,0.0,0.0,92,0.00,,,0.00,HR-IXPWINDi_r2_v1.2.,2014-03-10 06:42:00,
2014-03-10 02:47:00,43.3,41.1,29.33,ENE,67,0.0,0.0,92,0.00,,,0.00,HR-IXPWINDi_r2_v1.2.,2014-03-10 06:47:00,
2014-03-10 02:53:00,43.1,40.9,29.33,ENE,66,0.0,0.0,92,0.00,,,0.00,HR-IXPWINDi_r2_v1.2.,2014-03-10 06:53:00,
2014-03-10 02:58:00,42.9,40.7,29.33,ENE,67,0.0,0.0,92,0.00,,,0.00,HR-IXPWINDi_r2_v1.2.,2014-03-10 06:58:00,
2014-03-10 03:04:00,42.9,41.0,29.33,ENE,66,0.0,0.0,93,0.00,,,0.00,HR-IXPWINDi_r2_v1.2.,2014-03-10 07:04:00,
2014-03-10 03:09:00,42.8,41.1,29.33,ENE,67,0.0,0.0,94,0.00,,,0.00,HR-IXPWINDi_r2_v1.2.,2014-03-10 07:09:00,
2014-03-10 03:14:00,42.7,41.0,29.33,ENE,66,0.0,0.0,94,0.00,,,0.00,HR-IXPWINDi_r2_v1.2.,2014-03-10 07:14:00,
2014-03-10 03:19:00,42.5,40.6,29.33,ENE,66,0.0,0.0,93,0.00,,,0.00,HR-IXPWINDi_r2_v1.2.,2014-03-10 07:19:00,
2014-03-10 03:25:00,42.3,40.6,29.32,ENE,66,0.0,0.0,94,0.00,,,0.00,HR-IXPWINDi_r2_v1.2.,2014-03-10 07:25:00,
2014-03-10 03:31:00,42.4,40.7,29.33,ENE,66,0.0,0.0,94,0.00,,,0.00,HR-IXPWINDi_r2_v1.2.,2014-03-10 07:31:00,
2014-03-10 03:36:00,42.2,40.5,29.32,ENE,66,0.0,0.0,94,0.00,,,0.00,HR-IXPWINDi_r2_v1.2.,2014-03-10 07:36:00,
2014-03-10 03:41:00,42.0,40.3,29.32,ENE,67,0.0,0.0,94,0.00,,,0.00,HR-IXPWINDi_r2_v1.2.,2014-03-10 07:41:00,
2014-03-10 03:46:00,41.7,40.0,29.32,ENE,66,0.0,0.0,94,0.00,,,0.00,HR-IXPWINDi_r2_v1.2.,2014-03-10 07:46:00,
2014-03-10 03:52:00,41.5,39.9,29.32,ENE,64,0.0,0.0,94,0.00,,,0.00,HR-IXPWINDi_r2_v1.2.,2014-03-10 07:52:00,
2014-03-10 03:57:00,41.4,39.8,29.32,ENE,64,0.0,0.0,94,0.00,,,0.00,HR-IXPWINDi_r2_v1.2.,2014-03-10 07:57:00,
2014-03-10 04:02:00,41.3,39.7,29.31,ENE,63,0.0,0.0,94,0.00,,,0.00,HR-IXPWINDi_r2_v1.2.,2014-03-10 08:02:00,
2014-03-10 04:07:00,41.2,39.6,29.31,ENE,63,0.0,0.0,94,0.00,,,0.00,HR-IXPWINDi_r2_v1.2.,2014-03-10 08:07:00,
2014-03-10 04:12:00,41.0,39.4,29.31,ENE,63,0.0,0.0,94,0.00,,,0.00,HR-IXPWINDi_r2_v1.2.,2014-03-10 08:12:00,
2014-03-10 04:17:00,41.0,39.6,29.31,ENE,64,0.0,0.0,95,0.00,,,0.00,HR-IXPWINDi_r2_v1.2.,2014-03-10 08:17:00,
2014-03-10 04:23:00,41.1,39.7,29.31,ENE,63,0.0,0.0,95,0.00,,,0.00,HR-IXPWINDi_r2_v1.2.,2014-03-10 08:23:00,
2014-03-10 04:28:00,41.4,40.3,29.31,ENE,64,0.0,0.0,96,0.00,,,0.00,HR-IXPWINDi_r2_v1.2.,2014-03-10 08:28:00,
2014-03-10 04:33:00,41.5,40.4,29.31,ENE,63,0.0,0.0,96,0.00,,,0.00,HR-IXPWINDi_r2_v1.2.,2014-03-10 08:33:00,
2014-03-10 04:38:00,41.3,39.9,29.31,ENE,64,0.0,0.0,95,0.00,,,0.00,HR-IXPWINDi_r2_v1.2.,2014-03-10 08:38:00,
2014-03-10 04:43:00,41.0,39.6,29.31,ENE,64,0.0,0.0,95,0.00,,,0.00,HR-IXPWINDi_r2_v1.2.,2014-03-10 08:43:00,
2014-03-10 04:49:00,40.9,39.5,29.31,ENE,64,0.0,0.0,95,0.00,,,0.00,HR-IXPWINDi_r2_v1.2.,2014-03-10 08:49:00,
2014-03-10 04:55:00,40.6,39.2,29.31,ENE,63,0.0,0.0,95,0.00,,,0.00,HR-IXPWINDi_r2_v1.2.,2014-03-10 08:55:00,
2014-03-10 05:00:00,40.4,39.0,29.30,ENE,66,0.0,0.0,95,0.00,,,0.00,HR-IXPWINDi_r2_v1.2.,2014-03-10 09:00:00,
2014-03-10 05:05:00,40.5,38.9,29.30,ENE,67,0.0,0.0,94,0.00,,,0.00,HR-IXPWINDi_r2_v1.2.,2014-03-10 09:05:00,
2014-03-10 05:11:00,40.5,38.9,29.30,ENE,67,0.0,0.0,94,0.00,,,0.00,HR-IXPWINDi_r2_v1.2.,2014-03-10 09:11:00,
2014-03-10 05:16:00,40.5,38.9,29.30,ENE,67,0.0,0.0,94,0.00,,,0.00,HR-IXPWINDi_r2_v1.2.,2014-03-10 09:16:00,
2014-03-10 05:21:00,-999.0,99.9,29.30,North,-999,-999.0,-999.0,-999,99.99,,,0.00,HR-IXPWINDi_r2_v1.2.,2014-03-10 09:21:00,
2014-03-10 05:26:00,-999.0,99.9,29.30,North,-999,-999.0,-999.0,-999,99.99,,,0.00,HR-IXPWINDi_r2_v1.2.,2014-03-10 09:26:00,
2014-03-10 05:31:00,-999.0,99.9,29.30,North,-999,-999.0,-999.0,-999,99.99,,,0.00,HR-IXPWINDi_r2_v1.2.,2014-03-10 09:31:00,
2014-03-10 05:36:00,-999.0,99.9,29.31,North,-999,-999.0,-999.0,-999,99.99,,,0.00,HR-IXPWINDi_r2_v1.2.,2014-03-10 09:36:00,
2014-03-10 05:41:00,-999.0,99.9,29.31,North,-999,-999.0,-999.0,-999,99.99,,,0.00,HR-IXPWINDi_r2_v1.2.,2014-03-10 09:41:00,
2014-03-10 05:46:00,-999.0,99.9,29.30,North,-999,-999.0,-999.0,-999,99.99,,,0.00,HR-IXPWINDi_r2_v1.2.,2014-03-10 09:46:00,
2014-03-10 05:51:00,-999.0,99.9,29.30,North,-999,-999.0,-999.0,-999,99.99,,,0.00,HR-IXPWINDi_r2_v1.2.,2014-03-10 09:51:00,
2014-03-10 05:57:00,-999.0,99.9,29.30,North,-999,-999.0,-999.0,-999,99.99,,,0.00,HR-IXPWINDi_r2_v1.2.,2014-03-10 09:57:00,
2014-03-10 06:02:00,-999.0,99.9,29.30,North,-999,-999.0,-999.0,-999,99.99,,,0.00,HR-IXPWINDi_r2_v1.2.,2014-03-10 10:02:00,
2014-03-10 06:07:00,-999.0,99.9,29.30,North,-999,-999.0,-999.0,-999,99.99,,,0.00,HR-IXPWINDi_r2_v1.2.,2014-03-10 10:07:00,
2014-03-10 06:12:00,-999.0,99.9,29.31,North,-999,-999.0,-999.0,-999,99.99,,,0.00,HR-IXPWINDi_r2_v1.2.,2014-03-10 10:12:00,
2014-03-10 06:17:00,-999.0,99.9,29.31,North,-999,-999.0,-999.0,-999,99.99,,,0.00,HR-IXPWINDi_r2_v1.2.,2014-03-10 10:17:00,
2014-03-10 06:23:00,-999.0,99.9,29.31,North,-999,-999.0,-999.0,-999,99.99,,,0.00,HR-IXPWINDi_r2_v1.2.,2014-03-10 10:23:00,
2014-03-10 06:28:00,-999.0,99.9,29.31,North,-999,-999.0,-999.0,-999,99.99,,,0.00,HR-IXPWINDi_r2_v1.2.,2014-03-10 10:28:00,
2014-03-10 06:33:00,-999.0,99.9,29.30,North,-999,-999.0,-999.0,-999,99.99,,,0.00,HR-IXPWINDi_r2_v1.2.,2014-03-10 10:33:00,
2014-03-10 06:38:00,-999.0,99.9,29.31,North,-999,-999.0,-999.0,-999,99.99,,,0.00,HR-IXPWINDi_r2_v1.2.,2014-03-10 10:38:00,
2014-03-10 06:43:00,-999.0,99.9,29.31,North,-999,-999.0,-999.0,-999,99.99,,,0.00,HR-IXPWINDi_r2_v1.2.,2014-03-10 10:43:00,
2014-03-10 06:48:00,-999.0,99.9,29.31,North,-999,-999.0,-999.0,-999,99.99,,,0.00,HR-IXPWINDi_r2_v1.2.,2014-03-10 10:48:00,
2014-03-10 06:53:00,-999.0,99.9,29.31,North,-999,-999.0,-999.0,-999,99.99,,,0.00,HR-IXPWINDi_r2_v1.2.,2014-03-10 10:53:00,
2014-03-10 06:58:00,-999.0,99.9,29.31,North,-999,-999.0,-999.0,-999,99.99,,,0.00,HR-IXPWINDi_r2_v1.2.,2014-03-10 10:58:00,
2014-03-10 07:03:00,-999.0,99.9,29.31,North,-999,-999.0,-999.0,-999,99.99,,,0.00,HR-IXPWINDi_r2_v1.2.,2014-03-10 11:03:00,
2014-03-10 07:08:00,-999.0,99.9,29.31,North,-999,-999.0,-999.0,-999,99.99,,,0.00,HR-IXPWINDi_r2_v1.2.,2014-03-10 11:08:00,
2014-03-10 07:14:00,-999.0,99.9,29.31,North,-999,-999.0,-999.0,-999,99.99,,,0.00,HR-IXPWINDi_r2_v1.2.,2014-03-10 11:14:00,
2014-03-10 07:19:00,-999.0,99.9,29.31,North,-999,-999.0,-999.0,-999,99.99,,,0.00,HR-IXPWINDi_r2_v1.2.,2014-03-10 11:19:00,
2014-03-10 07:24:00,-999.0,99.9,29.32,North,-999,-999.0,-999.0,-999,99.99,,,0.00,HR-IXPWINDi_r2_v1.2.,2014-03-10 11:24:00,
2014-03-10 07:30:00,-999.0,99.9,29.32,North,-999,-999.0,-999.0,-999,99.99,,,0.00,HR-IXPWINDi_r2_v1.2.,2014-03-10 11:30:00,
2014-03-10 07:35:00,-999.0,99.9,29.32,North,-999,-999.0,-999.0,-999,99.99,,,0.00,HR-IXPWINDi_r2_v1.2.,2014-03-10 11:35:00,
2014-03-10 07:40:00,-999.0,99.9,29.32,North,-999,-999.0,-999.0,-999,99.99,,,0.00,HR-IXPWINDi_r2_v1.2.,2014-03-10 11:40:00,
2014-03-10 07:45:00,-999.0,99.9,29.32,North,-999,-999.0,-999.0,-999,99.99,,,0.00,HR-IXPWINDi_r2_v1.2.,2014-03-10 11:45:00,
2014-03-10 07:51:00,-999.0,99.9,29.32,North,-999,-999.0,-999.0,-999,99.99,,,0.00,HR-IXPWINDi_r2_v1.2.,2014-03-10 11:51:00,
2014-03-10 07:56:00,-999.0,99.9,29.32,North,-999,-999.0,-999.0,-999,99.99,,,0.00,HR-IXPWINDi_r2_v1.2.,2014-03-10 11:56:00,
2014-03-10 08:01:00,-999.0,99.9,29.32,North,-999,-999.0,-999.0,-999,99.99,,,0.00,HR-IXPWINDi_r2_v1.2.,2014-03-10 12:01:00,
2014-03-10 08:06:00,-999.0,99.9,29.33,North,-999,-999.0,-999.0,-999,99.99,,,0.00,HR-IXPWINDi_r2_v1.2.,2014-03-10 12:06:00,
2014-03-10 08:11:00,-999.0,99.9,29.33,North,-999,-999.0,-999.0,-999,99.99,,,0.00,HR-IXPWINDi_r2_v1.2.,2014-03-10 12:11:00,
2014-03-10 08:17:00,-999.0,99.9,29.32,North,-999,-999.0,-999.0,-999,99.99,,,0.00,HR-IXPWINDi_r2_v1.2.,2014-03-10 12:17:00,
2014-03-10 08:22:00,-999.0,99.9,29.33,North,-999,-999.0,-999.0,-999,99.99,,,0.00,HR-IXPWINDi_r2_v1.2.,2014-03-10 12:22:00,
2014-03-10 08:27:00,-999.0,99.9,29.32,North,-999,-999.0,-999.0,-999,99.99,,,0.00,HR-IXPWINDi_r2_v1.2.,2014-03-10 12:27:00,
2014-03-10 08:32:00,-999.0,99.9,29.33,North,-999,-999.0,-999.0,-999,99.99,,,0.00,HR-IXPWINDi_r2_v1.2.,2014-03-10 12:32:00,
2014-03-10 08:37:00,-999.0,99.9,29.33,North,-999,-999.0,-999.0,-999,99.99,,,0.00,HR-IXPWINDi_r2_v1.2.,2014-03-10 12:37:00,
2014-03-10 08:42:00,-999.0,99.9,29.33,North,-999,-999.0,-999.0,-999,99.99,,,0.00,HR-IXPWINDi_r2_v1.2.,2014-03-10 12:42:00,
2014-03-10 08:47:00,-999.0,99.9,29.33,North,-999,-999.0,-999.0,-999,99.99,,,0.00,HR-IXPWINDi_r2_v1.2.,2014-03-10 12:47:00,
2014-03-10 08:53:00,-999.0,99.9,29.32,North,-999,-999.0,-999.0,-999,99.99,,,0.00,HR-IXPWINDi_r2_v1.2.,2014-03-10 12:53:00,
2014-03-10 08:58:00,41.9,41.1,29.32,NNE,30,0.0,255.0,97,0.00,,,0.00,HR-IXPWINDi_r2_v1.2.,2014-03-10 12:58:00,
2014-03-10 09:03:00,42.6,41.8,29.32,NNE,30,0.0,255.0,97,0.00,,,0.00,HR-IXPWINDi_r2_v1.2.,2014-03-10 13:03:00,
2014-03-10 09:08:00,43.0,42.2,29.32,NNE,30,0.0,0.0,97,0.00,,,0.00,HR-IXPWINDi_r2_v1.2.,2014-03-10 13:08:00,
2014-03-10 09:14:00,43.6,42.7,29.32,NNE,29,0.0,0.0,97,0.00,,,0.00,HR-IXPWINDi_r2_v1.2.,2014-03-10 13:14:00,
2014-03-10 09:19:00,44.9,44.0,29.32,NNE,30,0.0,0.0,97,0.00,,,0.00,HR-IXPWINDi_r2_v1.2.,2014-03-10 13:19:00,
2014-03-10 09:24:00,46.5,45.6,29.32,NNE,30,0.0,0.0,97,0.00,,,0.00,HR-IXPWINDi_r2_v1.2.,2014-03-10 13:24:00,
2014-03-10 09:30:00,47.9,47.0,29.32,NNE,30,0.0,0.0,97,0.00,,,0.00,HR-IXPWINDi_r2_v1.2.,2014-03-10 13:30:00,
2014-03-10 09:35:00,48.1,45.8,29.32,NNE,27,0.0,0.0,92,0.00,,,0.00,HR-IXPWINDi_r2_v1.2.,2014-03-10 13:35:00,
2014-03-10 09:40:00,47.9,45.0,29.32,WSW,255,0.0,0.0,90,0.00,,,0.00,HR-IXPWINDi_r2_v1.2.,2014-03-10 13:40:00,
2014-03-10 09:45:00,48.4,45.5,29.32,SW,233,0.0,0.0,90,0.00,,,0.00,HR-IXPWINDi_r2_v1.2.,2014-03-10 13:45:00,
2014-03-10 09:50:00,49.1,45.9,29.32,WSW,243,0.0,0.0,89,0.00,,,0.00,HR-IXPWINDi_r2_v1.2.,2014-03-10 13:50:00,
2014-03-10 09:55:00,49.8,46.0,29.33,WSW,255,0.0,0.0,87,0.00,,,0.00,HR-IXPWINDi_r2_v1.2.,2014-03-10 13:55:00,
2014-03-10 10:01:00,50.2,45.5,29.33,WSW,255,0.0,0.0,84,0.00,,,0.00,HR-IXPWINDi_r2_v1.2.,2014-03-10 14:01:00,
2014-03-10 10:06:00,50.7,45.7,29.33,SW,235,0.0,0.0,83,0.00,,,0.00,HR-IXPWINDi_r2_v1.2.,2014-03-10 14:06:00,
2014-03-10 10:11:00,51.1,46.1,29.33,WSW,240,0.0,0.0,83,0.00,,,0.00,HR-IXPWINDi_r2_v1.2.,2014-03-10 14:11:00,
2014-03-10 10:16:00,51.7,46.6,29.33,WSW,256,0.0,0.0,83,0.00,,,0.00,HR-IXPWINDi_r2_v1.2.,2014-03-10 14:16:00,
2014-03-10 10:22:00,52.3,46.6,29.33,SW,236,0.0,0.0,81,0.00,,,0.00,HR-IXPWINDi_r2_v1.2.,2014-03-10 14:22:00,
2014-03-10 10:27:00,53.0,46.6,29.33,WSW,242,0.0,0.0,79,0.00,,,0.00,HR-IXPWINDi_r2_v1.2.,2014-03-10 14:27:00,
2014-03-10 10:32:00,53.6,46.5,29.32,WSW,248,0.0,0.0,77,0.00,,,0.00,HR-IXPWINDi_r2_v1.2.,2014-03-10 14:32:00,
2014-03-10 10:37:00,54.2,47.1,29.32,WSW,252,0.0,0.0,77,0.00,,,0.00,HR-IXPWINDi_r2_v1.2.,2014-03-10 14:37:00,
2014-03-10 10:42:00,54.6,46.4,29.32,West,277,0.0,0.0,74,0.00,,,0.00,HR-IXPWINDi_r2_v1.2.,2014-03-10 14:42:00,
2014-03-10 10:47:00,55.2,46.6,29.32,SW,229,0.0,0.0,73,0.00,,,0.00,HR-IXPWINDi_r2_v1.2.,2014-03-10 14:47:00,
2014-03-10 10:52:00,55.7,46.8,29.32,WSW,256,0.0,0.0,72,0.00,,,0.00,HR-IXPWINDi_r2_v1.2.,2014-03-10 14:52:00,
2014-03-10 10:58:00,56.7,47.7,29.32,SW,233,0.0,0.0,72,0.00,,,0.00,HR-IXPWINDi_r2_v1.2.,2014-03-10 14:58:00,
2014-03-10 11:03:00,57.3,47.5,29.32,West,264,0.0,0.0,70,0.00,,,0.00,HR-IXPWINDi_r2_v1.2.,2014-03-10 15:03:00,
2014-03-10 11:08:00,58.2,48.4,29.32,WSW,247,0.0,0.0,70,0.00,,,0.00,HR-IXPWINDi_r2_v1.2.,2014-03-10 15:08:00,
2014-03-10 11:13:00,58.4,47.8,29.32,SW,236,0.0,2.0,68,0.00,,,0.00,HR-IXPWINDi_r2_v1.2.,2014-03-10 15:13:00,
2014-03-10 11:18:00,58.3,47.3,29.32,SW,231,0.0,2.0,67,0.00,,,0.00,HR-IXPWINDi_r2_v1.2.,2014-03-10 15:18:00,
2014-03-10 11:23:00,58.6,47.6,29.31,SW,221,0.0,2.0,67,0.00,,,0.00,HR-IXPWINDi_r2_v1.2.,2014-03-10 15:23:00,
2014-03-10 11:28:00,59.0,48.0,29.31,WSW,243,0.0,2.0,67,0.00,,,0.00,HR-IXPWINDi_r2_v1.2.,2014-03-10 15:28:00,
2014-03-10 11:33:00,59.7,48.3,29.31,WSW,256,0.0,2.0,66,0.00,,,0.00,HR-IXPWINDi_r2_v1.2.,2014-03-10 15:33:00,
2014-03-10 11:39:00,60.1,47.8,29.31,SW,229,0.0,4.0,64,0.00,,,0.00,HR-IXPWINDi_r2_v1.2.,2014-03-10 15:39:00,
2014-03-10 11:44:00,60.4,48.9,29.31,West,264,0.0,4.0,66,0.00,,,0.00,HR-IXPWINDi_r2_v1.2.,2014-03-10 15:44:00,
2014-03-10 11:49:00,61.0,48.7,29.31,WSW,240,0.0,0.0,64,0.00,,,0.00,HR-IXPWINDi_r2_v1.2.,2014-03-10 15:49:00,
2014-03-10 11:54:00,61.4,49.5,29.31,WSW,243,0.0,0.0,65,0.00,,,0.00,HR-IXPWINDi_r2_v1.2.,2014-03-10 15:54:00,
2014-03-10 11:59:00,61.7,49.3,29.30,SW,236,0.0,0.0,64,0.00,,,0.00,HR-IXPWINDi_r2_v1.2.,2014-03-10 15:59:00,
2014-03-10 12:04:00,61.6,48.8,29.30,WSW,248,0.0,0.0,63,0.00,,,0.00,HR-IXPWINDi_r2_v1.2.,2014-03-10 16:04:00,
2014-03-10 12:09:00,62.2,49.8,29.30,WSW,257,0.0,0.0,64,0.00,,,0.00,HR-IXPWINDi_r2_v1.2.,2014-03-10 16:09:00,
2014-03-10 12:15:00,62.1,49.3,29.30,SW,231,0.0,0.0,63,0.00,,,0.00,HR-IXPWINDi_r2_v1.2.,2014-03-10 16:15:00,
2014-03-10 12:20:00,63.1,50.7,29.29,West,267,0.0,0.0,64,0.00,,,0.00,HR-IXPWINDi_r2_v1.2.,2014-03-10 16:20:00,
2014-03-10 12:25:00,63.7,50.8,29.29,WSW,240,0.0,0.0,63,0.00,,,0.00,HR-IXPWINDi_r2_v1.2.,2014-03-10 16:25:00,
2014-03-10 12:30:00,63.6,50.3,29.29,SW,235,0.0,0.0,62,0.00,,,0.00,HR-IXPWINDi_r2_v1.2.,2014-03-10 16:30:00,
2014-03-10 12:36:00,63.9,50.6,29.29,WSW,249,0.0,0.0,62,0.00,,,0.00,HR-IXPWINDi_r2_v1.2.,2014-03-10 16:36:00,
2014-03-10 12:41:00,63.9,50.1,29.29,WSW,239,0.0,0.0,61,0.00,,,0.00,HR-IXPWINDi_r2_v1.2.,2014-03-10 16:41:00,
2014-03-10 12:46:00,64.5,50.7,29.29,WSW,250,0.0,0.0,61,0.00,,,0.00,HR-IXPWINDi_r2_v1.2.,2014-03-10 16:46:00,
2014-03-10 12:51:00,64.3,50.1,29.29,SW,228,0.0,0.0,60,0.00,,,0.00,HR-IXPWINDi_r2_v1.2.,2014-03-10 16:51:00,
2014-03-10 12:56:00,64.3,50.1,29.29,WSW,256,0.0,0.0,60,0.00,,,0.00,HR-IXPWINDi_r2_v1.2.,2014-03-10 16:56:00,
2014-03-10 13:01:00,64.8,50.5,29.28,WSW,240,0.0,0.0,60,0.00,,,0.00,HR-IXPWINDi_r2_v1.2.,2014-03-10 17:01:00,
2014-03-10 13:06:00,65.2,50.0,29.28,WNW,283,0.0,0.0,58,0.00,,,0.00,HR-IXPWINDi_r2_v1.2.,2014-03-10 17:06:00,
2014-03-10 13:11:00,65.2,50.9,29.28,WSW,239,0.0,0.0,60,0.00,,,0.00,HR-IXPWINDi_r2_v1.2.,2014-03-10 17:11:00,
2014-03-10 13:17:00,65.6,50.4,29.27,SW,228,0.0,0.0,58,0.00,,,0.00,HR-IXPWINDi_r2_v1.2.,2014-03-10 17:17:00,
2014-03-10 13:22:00,65.8,50.1,29.27,WSW,243,0.0,0.0,57,0.00,,,0.00,HR-IXPWINDi_r2_v1.2.,2014-03-10 17:22:00,
2014-03-10 13:27:00,66.2,50.9,29.27,SW,232,0.0,0.0,58,0.00,,,0.00,HR-IXPWINDi_r2_v1.2.,2014-03-10 17:27:00,
2014-03-10 13:33:00,66.0,49.8,29.26,WSW,237,0.0,0.0,56,0.00,,,0.00,HR-IXPWINDi_r2_v1.2.,2014-03-10 17:33:00,
2014-03-10 13:38:00,66.3,50.1,29.26,WSW,237,0.0,0.0,56,0.00,,,0.00,HR-IXPWINDi_r2_v1.2.,2014-03-10 17:38:00,
2014-03-10 13:44:00,66.9,50.6,29.26,WSW,240,0.0,0.0,56,0.00,,,0.00,HR-IXPWINDi_r2_v1.2.,2014-03-10 17:44:00,
2014-03-10 13:49:00,67.1,49.9,29.26,WSW,237,0.0,0.0,54,0.00,,,0.00,HR-IXPWINDi_r2_v1.2.,2014-03-10 17:49:00,
2014-03-10 13:55:00,67.7,50.4,29.25,SW,236,0.0,0.0,54,0.00,,,0.00,HR-IXPWINDi_r2_v1.2.,2014-03-10 17:55:00,
2014-03-10 14:00:00,67.5,49.2,29.25,NW,319,0.0,0.0,52,0.00,,,0.00,HR-IXPWINDi_r2_v1.2.,2014-03-10 18:00:00,
2014-03-10 14:06:00,67.9,50.1,29.24,WSW,258,0.0,0.0,53,0.00,,,0.00,HR-IXPWINDi_r2_v1.2.,2014-03-10 18:06:00,
2014-03-10 14:11:00,67.7,49.4,29.24,SW,231,0.0,0.0,52,0.00,,,0.00,HR-IXPWINDi_r2_v1.2.,2014-03-10 18:11:00,
2014-03-10 14:16:00,68.2,49.3,29.24,SW,229,0.0,0.0,51,0.00,,,0.00,HR-IXPWINDi_r2_v1.2.,2014-03-10 18:16:00,
2014-03-10 14:21:00,68.1,50.3,29.23,WSW,240,0.0,0.0,53,0.00,,,0.00,HR-IXPWINDi_r2_v1.2.,2014-03-10 18:21:00,
2014-03-10 14:26:00,68.6,49.7,29.23,SW,233,0.0,0.0,51,0.00,,,0.00,HR-IXPWINDi_r2_v1.2.,2014-03-10 18:26:00,
2014-03-10 14:31:00,68.9,49.4,29.22,WSW,246,0.0,0.0,50,0.00,,,0.00,HR-IXPWINDi_r2_v1.2.,2014-03-10 18:31:00,
2014-03-10 14:36:00,69.1,50.2,29.22,WSW,256,0.0,0.0,51,0.00,,,0.00,HR-IXPWINDi_r2_v1.2.,2014-03-10 18:36:00,
2014-03-10 14:43:00,68.6,49.2,29.22,SW,222,0.0,0.0,50,0.00,,,0.00,HR-IXPWINDi_r2_v1.2.,2014-03-10 18:43:00,
2014-03-10 14:48:00,68.8,48.3,29.22,WSW,237,0.0,0.0,48,0.00,,,0.00,HR-IXPWINDi_r2_v1.2.,2014-03-10 18:48:00,
2014-03-10 14:53:00,68.9,48.4,29.21,SW,232,0.0,0.0,48,0.00,,,0.00,HR-IXPWINDi_r2_v1.2.,2014-03-10 18:53:00,
2014-03-10 14:58:00,69.0,48.4,29.21,WSW,252,0.0,0.0,48,0.00,,,0.00,HR-IXPWINDi_r2_v1.2.,2014-03-10 18:58:00,
2014-03-10 15:04:00,69.4,49.4,29.21,WSW,256,0.0,0.0,49,0.00,,,0.00,HR-IXPWINDi_r2_v1.2.,2014-03-10 19:04:00,
2014-03-10 15:09:00,69.2,48.6,29.21,WSW,250,0.0,0.0,48,0.00,,,0.00,HR-IXPWINDi_r2_v1.2.,2014-03-10 19:09:00,
2014-03-10 15:14:00,69.5,46.6,29.20,SW,226,0.0,0.0,44,0.00,,,0.00,HR-IXPWINDi_r2_v1.2.,2014-03-10 19:14:00,
2014-03-10 15:19:00,69.4,48.3,29.20,WSW,239,0.0,0.0,47,0.00,,,0.00,HR-IXPWINDi_r2_v1.2.,2014-03-10 19:19:00,
2014-03-10 15:24:00,69.5,48.3,29.20,SW,229,0.0,0.0,47,0.00,,,0.00,HR-IXPWINDi_r2_v1.2.,2014-03-10 19:24:00,
2014-03-10 15:30:00,70.0,48.8,29.19,SSW,204,0.0,0.0,47,0.00,,,0.00,HR-IXPWINDi_r2_v1.2.,2014-03-10 19:30:00,
2014-03-10 15:35:00,69.7,46.8,29.19,SW,235,0.0,0.0,44,0.00,,,0.00,HR-IXPWINDi_r2_v1.2.,2014-03-10 19:35:00,
2014-03-10 15:40:00,69.5,48.3,29.19,WSW,256,0.0,0.0,47,0.00,,,0.00,HR-IXPWINDi_r2_v1.2.,2014-03-10 19:40:00,
2014-03-10 15:45:00,69.9,47.5,29.19,SW,232,0.0,0.0,45,0.00,,,0.00,HR-IXPWINDi_r2_v1.2.,2014-03-10 19:45:00,
2014-03-10 15:50:00,69.9,46.3,29.19,SW,226,0.0,0.0,43,0.00,,,0.00,HR-IXPWINDi_r2_v1.2.,2014-03-10 19:50:00,
2014-03-10 15:56:00,70.0,48.2,29.18,SW,228,0.0,0.0,46,0.00,,,0.00,HR-IXPWINDi_r2_v1.2.,2014-03-10 19:56:00,
2014-03-10 16:01:00,69.9,47.5,29.18,WSW,238,0.0,0.0,45,0.00,,,0.00,HR-IXPWINDi_r2_v1.2.,2014-03-10 20:01:00,
2014-03-10 16:07:00,70.0,47.6,29.18,SW,236,0.0,0.0,45,0.00,,,0.00,HR-IXPWINDi_r2_v1.2.,2014-03-10 20:07:00,
2014-03-10 16:12:00,70.3,47.9,29.18,SW,233,0.0,0.0,45,0.00,,,0.00,HR-IXPWINDi_r2_v1.2.,2014-03-10 20:12:00,
2014-03-10 16:17:00,70.1,47.7,29.17,WSW,239,0.0,0.0,45,0.00,,,0.00,HR-IXPWINDi_r2_v1.2.,2014-03-10 20:17:00,
2014-03-10 16:23:00,69.8,46.9,29.17,SW,236,0.0,0.0,44,0.00,,,0.00,HR-IXPWINDi_r2_v1.2.,2014-03-10 20:23:00,
2014-03-10 16:28:00,69.7,48.0,29.17,WSW,245,0.0,0.0,46,0.00,,,0.00,HR-IXPWINDi_r2_v1.2.,2014-03-10 20:28:00,
2014-03-10 16:33:00,69.9,47.5,29.17,NW,311,0.0,0.0,45,0.00,,,0.00,HR-IXPWINDi_r2_v1.2.,2014-03-10 20:33:00,
2014-03-10 16:38:00,70.1,47.1,29.17,SW,231,0.0,0.0,44,0.00,,,0.00,HR-IXPWINDi_r2_v1.2.,2014-03-10 20:38:00,
2014-03-10 16:43:00,70.1,46.5,29.17,WSW,252,0.0,0.0,43,0.00,,,0.00,HR-IXPWINDi_r2_v1.2.,2014-03-10 20:43:00,
2014-03-10 16:48:00,69.9,47.5,29.17,SW,231,0.0,0.0,45,0.00,,,0.00,HR-IXPWINDi_r2_v1.2.,2014-03-10 20:48:00,
2014-03-10 16:53:00,70.2,47.2,29.17,WSW,250,0.0,0.0,44,0.00,,,0.00,HR-IXPWINDi_r2_v1.2.,2014-03-10 20:53:00,
2014-03-10 16:59:00,70.3,46.7,29.16,SW,226,0.0,0.0,43,0.00,,,0.00,HR-IXPWINDi_r2_v1.2.,2014-03-10 20:59:00,
2014-03-10 17:04:00,70.4,46.8,29.16,SW,236,0.0,0.0,43,0.00,,,0.00,HR-IXPWINDi_r2_v1.2.,2014-03-10 21:04:00,
2014-03-10 17:09:00,70.6,48.2,29.16,SW,228,0.0,0.0,45,0.00,,,0.00,HR-IXPWINDi_r2_v1.2.,2014-03-10 21:09:00,
2014-03-10 17:14:00,70.6,48.2,29.16,WSW,245,0.0,0.0,45,0.00,,,0.00,HR-IXPWINDi_r2_v1.2.,2014-03-10 21:14:00,
2014-03-10 17:20:00,71.0,47.9,29.16,WNW,302,0.0,0.0,44,0.00,,,0.00,HR-IXPWINDi_r2_v1.2.,2014-03-10 21:20:00,
2014-03-10 17:25:00,71.1,48.0,29.15,WSW,237,0.0,0.0,44,0.00,,,0.00,HR-IXPWINDi_r2_v1.2.,2014-03-10 21:25:00,
2014-03-10 17:30:00,71.3,47.6,29.15,WSW,246,0.0,0.0,43,0.00,,,0.00,HR-IXPWINDi_r2_v1.2.,2014-03-10 21:30:00,
2014-03-10 17:35:00,71.5,47.8,29.15,WSW,245,0.0,0.0,43,0.00,,,0.00,HR-IXPWINDi_r2_v1.2.,2014-03-10 21:35:00,
2014-03-10 17:40:00,71.2,48.1,29.15,WSW,248,0.0,0.0,44,0.00,,,0.00,HR-IXPWINDi_r2_v1.2.,2014-03-10 21:40:00,
2014-03-10 17:46:00,71.4,48.3,29.15,SW,232,0.0,0.0,44,0.00,,,0.00,HR-IXPWINDi_r2_v1.2.,2014-03-10 21:46:00,
2014-03-10 17:51:00,71.3,47.0,29.15,WSW,252,0.0,0.0,42,0.00,,,0.00,HR-IXPWINDi_r2_v1.2.,2014-03-10 21:51:00,
2014-03-10 17:56:00,71.1,47.4,29.15,WSW,249,0.0,0.0,43,0.00,,,0.00,HR-IXPWINDi_r2_v1.2.,2014-03-10 21:56:00,
2014-03-10 18:01:00,71.3,47.6,29.14,WSW,239,0.0,0.0,43,0.00,,,0.00,HR-IXPWINDi_r2_v1.2.,2014-03-10 22:01:00,
2014-03-10 18:06:00,71.2,47.5,29.15,WSW,239,0.0,0.0,43,0.00,,,0.00,HR-IXPWINDi_r2_v1.2.,2014-03-10 22:06:00,
2014-03-10 18:12:00,71.1,47.4,29.14,SW,224,0.0,0.0,43,0.00,,,0.00,HR-IXPWINDi_r2_v1.2.,2014-03-10 22:12:00,
2014-03-10 18:18:00,71.2,47.5,29.14,West,260,0.0,0.0,43,0.00,,,0.00,HR-IXPWINDi_r2_v1.2.,2014-03-10 22:18:00,
2014-03-10 18:23:00,70.9,46.6,29.14,WSW,245,0.0,0.0,42,0.00,,,0.00,HR-IXPWINDi_r2_v1.2.,2014-03-10 22:23:00,
2014-03-10 18:28:00,70.9,46.6,29.14,WSW,237,0.0,0.0,42,0.00,,,0.00,HR-IXPWINDi_r2_v1.2.,2014-03-10 22:28:00,
2014-03-10 18:33:00,70.7,46.4,29.14,WSW,252,0.0,0.0,42,0.00,,,0.00,HR-IXPWINDi_r2_v1.2.,2014-03-10 22:33:00,
2014-03-10 18:39:00,70.3,45.4,29.14,West,274,0.0,0.0,41,0.00,,,0.00,HR-IXPWINDi_r2_v1.2.,2014-03-10 22:39:00,
2014-03-10 18:44:00,70.0,45.8,29.14,WSW,256,0.0,0.0,42,0.00,,,0.00,HR-IXPWINDi_r2_v1.2.,2014-03-10 22:44:00,
2014-03-10 18:49:00,69.7,46.2,29.15,WSW,240,0.0,0.0,43,0.00,,,0.00,HR-IXPWINDi_r2_v1.2.,2014-03-10 22:49:00,
2014-03-10 18:54:00,69.6,46.1,29.15,WNW,295,0.0,0.0,43,0.00,,,0.00,HR-IXPWINDi_r2_v1.2.,2014-03-10 22:54:00,
2014-03-10 18:59:00,69.5,46.0,29.14,SW,232,0.0,0.0,43,0.00,,,0.00,HR-IXPWINDi_r2_v1.2.,2014-03-10 22:59:00,
2014-03-10 19:04:00,69.3,47.0,29.14,WSW,246,0.0,0.0,45,0.00,,,0.00,HR-IXPWINDi_r2_v1.2.,2014-03-10 23:04:00,
2014-03-10 19:09:00,69.2,46.3,29.14,WSW,240,0.0,0.0,44,0.00,,,0.00,HR-IXPWINDi_r2_v1.2.,2014-03-10 23:09:00,
2014-03-10 19:14:00,68.9,46.6,29.15,SW,236,0.0,1.0,45,0.00,,,0.00,HR-IXPWINDi_r2_v1.2.,2014-03-10 23:14:00,
2014-03-10 19:20:00,68.6,47.0,29.15,SW,236,0.0,1.0,46,0.00,,,0.00,HR-IXPWINDi_r2_v1.2.,2014-03-10 23:20:00,
2014-03-10 19:25:00,68.2,46.6,29.15,WSW,246,0.0,1.0,46,0.00,,,0.00,HR-IXPWINDi_r2_v1.2.,2014-03-10 23:25:00,
2014-03-10 19:30:00,67.7,46.7,29.15,WSW,248,0.0,1.0,47,0.00,,,0.00,HR-IXPWINDi_r2_v1.2.,2014-03-10 23:30:00,
2014-03-10 19:36:00,67.0,46.6,29.15,WSW,248,0.0,0.0,48,0.00,,,0.00,HR-IXPWINDi_r2_v1.2.,2014-03-10 23:36:00,
2014-03-10 19:42:00,66.5,46.7,29.15,WSW,250,0.0,0.0,49,0.00,,,0.00,HR-IXPWINDi_r2_v1.2.,2014-03-10 23:42:00,
2014-03-10 19:47:00,66.0,46.8,29.15,WSW,243,0.0,0.0,50,0.00,,,0.00,HR-IXPWINDi_r2_v1.2.,2014-03-10 23:47:00,
2014-03-10 19:52:00,65.5,46.8,29.15,WSW,257,0.0,0.0,51,0.00,,,0.00,HR-IXPWINDi_r2_v1.2.,2014-03-10 23:52:00,
2014-03-10 19:57:00,65.2,46.6,29.15,WSW,249,0.0,0.0,51,0.00,,,0.00,HR-IXPWINDi_r2_v1.2.,2014-03-10 23:57:00,
2014-03-10 20:02:00,64.7,46.6,29.15,WSW,249,0.0,0.0,52,0.00,,,0.00,HR-IXPWINDi_r2_v1.2.,2014-03-11 00:02:00,
2014-03-10 20:07:00,64.0,46.5,29.15,WSW,249,0.0,0.0,53,0.00,,,0.00,HR-IXPWINDi_r2_v1.2.,2014-03-11 00:07:00,
2014-03-10 20:13:00,63.3,46.3,29.15,WSW,249,0.0,0.0,54,0.00,,,0.00,HR-IXPWINDi_r2_v1.2.,2014-03-11 00:13:00,
2014-03-10 20:18:00,62.7,46.7,29.15,WSW,249,0.0,0.0,56,0.00,,,0.00,HR-IXPWINDi_r2_v1.2.,2014-03-11 00:18:00,
2014-03-10 20:23:00,62.1,46.2,29.15,WSW,248,0.0,0.0,56,0.00,,,0.00,HR-IXPWINDi_r2_v1.2.,2014-03-11 00:23:00,
2014-03-10 20:28:00,61.8,46.4,29.15,WSW,249,0.0,0.0,57,0.00,,,0.00,HR-IXPWINDi_r2_v1.2.,2014-03-11 00:28:00,
2014-03-10 20:34:00,61.2,45.8,29.15,WSW,249,0.0,0.0,57,0.00,,,0.00,HR-IXPWINDi_r2_v1.2.,2014-03-11 00:34:00,
2014-03-10 20:39:00,60.6,46.1,29.15,WSW,248,0.0,0.0,59,0.00,,,0.00,HR-IXPWINDi_r2_v1.2.,2014-03-11 00:39:00,
2014-03-10 20:44:00,59.9,45.9,29.15,WSW,249,0.0,0.0,60,0.00,,,0.00,HR-IXPWINDi_r2_v1.2.,2014-03-11 00:44:00,
2014-03-10 20:50:00,59.1,46.0,29.15,WSW,249,0.0,0.0,62,0.00,,,0.00,HR-IXPWINDi_r2_v1.2.,2014-03-11 00:50:00,
2014-03-10 20:56:00,58.6,46.4,29.16,WSW,249,0.0,0.0,64,0.00,,,0.00,HR-IXPWINDi_r2_v1.2.,2014-03-11 00:56:00,
2014-03-10 21:01:00,57.9,46.6,29.16,WSW,249,0.0,0.0,66,0.00,,,0.00,HR-IXPWINDi_r2_v1.2.,2014-03-11 01:01:00,
2014-03-10 21:06:00,57.3,46.8,29.16,WSW,249,0.0,0.0,68,0.00,,,0.00,HR-IXPWINDi_r2_v1.2.,2014-03-11 01:06:00,
2014-03-10 21:11:00,56.8,46.3,29.16,WSW,249,0.0,0.0,68,0.00,,,0.00,HR-IXPWINDi_r2_v1.2.,2014-03-11 01:11:00,
2014-03-10 21:17:00,56.5,46.4,29.16,WSW,249,0.0,0.0,69,0.00,,,0.00,HR-IXPWINDi_r2_v1.2.,2014-03-11 01:17:00,
2014-03-10 21:22:00,56.0,45.9,29.16,WSW,249,0.0,0.0,69,0.00,,,0.00,HR-IXPWINDi_r2_v1.2.,2014-03-11 01:22:00,
2014-03-10 21:27:00,55.7,46.0,29.16,WSW,249,0.0,0.0,70,0.00,,,0.00,HR-IXPWINDi_r2_v1.2.,2014-03-11 01:27:00,
2014-03-10 21:32:00,56.1,46.4,29.16,WSW,249,0.0,0.0,70,0.00,,,0.00,HR-IXPWINDi_r2_v1.2.,2014-03-11 01:32:00,
2014-03-10 21:37:00,56.4,46.3,29.16,WSW,249,0.0,0.0,69,0.00,,,0.00,HR-IXPWINDi_r2_v1.2.,2014-03-11 01:37:00,
2014-03-10 21:42:00,56.1,46.4,29.16,WSW,250,0.0,0.0,70,0.00,,,0.00,HR-IXPWINDi_r2_v1.2.,2014-03-11 01:42:00,
2014-03-10 21:47:00,55.5,46.2,29.16,WSW,249,0.0,0.0,71,0.00,,,0.00,HR-IXPWINDi_r2_v1.2.,2014-03-11 01:47:00,
2014-03-10 21:53:00,55.1,46.5,29.16,WSW,250,0.0,0.0,73,0.00,,,0.00,HR-IXPWINDi_r2_v1.2.,2014-03-11 01:53:00,
2014-03-10 21:58:00,55.1,46.5,29.16,WSW,249,0.0,0.0,73,0.00,,,0.00,HR-IXPWINDi_r2_v1.2.,2014-03-11 01:58:00,
2014-03-10 22:03:00,54.9,46.4,29.16,WSW,249,0.0,0.0,73,0.00,,,0.00,HR-IXPWINDi_r2_v1.2.,2014-03-11 02:03:00,
2014-03-10 22:09:00,54.5,46.0,29.16,WSW,249,0.0,0.0,73,0.00,,,0.00,HR-IXPWINDi_r2_v1.2.,2014-03-11 02:09:00,
2014-03-10 22:14:00,53.9,46.1,29.16,WSW,250,0.0,0.0,75,0.00,,,0.00,HR-IXPWINDi_r2_v1.2.,2014-03-11 02:14:00,
2014-03-10 22:19:00,53.5,46.1,29.16,WSW,249,0.0,0.0,76,0.00,,,0.00,HR-IXPWINDi_r2_v1.2.,2014-03-11 02:19:00,
2014-03-10 22:24:00,53.7,45.9,29.17,WSW,250,0.0,0.0,75,0.00,,,0.00,HR-IXPWINDi_r2_v1.2.,2014-03-11 02:24:00,
2014-03-10 22:29:00,53.7,45.9,29.17,WSW,248,0.0,0.0,75,0.00,,,0.00,HR-IXPWINDi_r2_v1.2.,2014-03-11 02:29:00,
2014-03-10 22:34:00,53.6,45.8,29.17,WSW,248,0.0,0.0,75,0.00,,,0.00,HR-IXPWINDi_r2_v1.2.,2014-03-11 02:34:00,
2014-03-10 22:39:00,53.3,45.9,29.17,WSW,250,0.0,0.0,76,0.00,,,0.00,HR-IXPWINDi_r2_v1.2.,2014-03-11 02:39:00,
2014-03-10 22:44:00,53.2,45.8,29.17,WSW,250,0.0,0.0,76,0.00,,,0.00,HR-IXPWINDi_r2_v1.2.,2014-03-11 02:44:00,
2014-03-10 22:50:00,53.2,45.8,29.17,WSW,250,0.0,0.0,76,0.00,,,0.00,HR-IXPWINDi_r2_v1.2.,2014-03-11 02:50:00,
2014-03-10 22:55:00,53.4,46.0,29.17,WSW,250,0.0,0.0,76,0.00,,,0.00,HR-IXPWINDi_r2_v1.2.,2014-03-11 02:55:00,
2014-03-10 23:00:00,53.2,45.8,29.17,WSW,250,0.0,0.0,76,0.00,,,0.00,HR-IXPWINDi_r2_v1.2.,2014-03-11 03:00:00,
2014-03-10 23:05:00,52.9,45.5,29.17,WSW,250,0.0,0.0,76,0.00,,,0.00,HR-IXPWINDi_r2_v1.2.,2014-03-11 03:05:00,
2014-03-10 23:10:00,52.6,45.2,29.17,WSW,250,0.0,0.0,76,0.00,,,0.00,HR-IXPWINDi_r2_v1.2.,2014-03-11 03:10:00,
2014-03-10 23:16:00,52.0,45.3,29.17,WSW,250,0.0,0.0,78,0.00,,,0.00,HR-IXPWINDi_r2_v1.2.,2014-03-11 03:16:00,
2014-03-10 23:21:00,51.5,45.1,29.17,WSW,250,0.0,0.0,79,0.00,,,0.00,HR-IXPWINDi_r2_v1.2.,2014-03-11 03:21:00,
2014-03-10 23:26:00,51.5,45.5,29.17,WSW,250,0.0,0.0,80,0.00,,,0.00,HR-IXPWINDi_r2_v1.2.,2014-03-11 03:26:00,
2014-03-10 23:32:00,51.3,45.3,29.17,ESE,107,0.0,0.0,80,0.00,,,0.00,HR-IXPWINDi_r2_v1.2.,2014-03-11 03:32:00,
2014-03-10 23:37:00,50.7,44.7,29.17,ESE,107,0.0,0.0,80,0.00,,,0.00,HR-IXPWINDi_r2_v1.2.,2014-03-11 03:37:00,
2014-03-10 23:42:00,50.4,44.7,29.17,ESE,107,0.0,0.0,81,0.00,,,0.00,HR-IXPWINDi_r2_v1.2.,2014-03-11 03:42:00,
2014-03-10 23:47:00,50.2,44.9,29.17,ESE,108,0.0,0.0,82,0.00,,,0.00,HR-IXPWINDi_r2_v1.2.,2014-03-11 03:47:00,
2014-03-10 23:52:00,50.1,45.1,29.17,ESE,105,0.0,0.0,83,0.00,,,0.00,HR-IXPWINDi_r2_v1.2.,2014-03-11 03:52:00,
2014-03-10 23:58:00,50.2,45.2,29.17,ESE,105,0.0,0.0,83,0.00,,,0.00,HR-IXPWINDi_r2_v1.2.,2014-03-11 03:58:00,